Time,TemperatureF,DewpointF,PressureIn,WindDirection,WindDirectionDegrees,WindSpeedMPH,WindSpeedGustMPH,Humidity,HourlyPrecipIn,Conditions,Clouds,dailyrainin,SoftwareType,DateUTC
2013-06-13 00:12:00,63.7,60.0,29.79,ENE,58,0.0,-999.0,86,-99.99,,,0.00,weatherlink.com 1.10,2013-06-13 04:12:00,
2013-06-13 00:27:00,63.6,60.0,29.78,ENE,58,0.0,-999.0,87,-99.99,,,0.00,weatherlink.com 1.10,2013-06-13 04:27:00,
2013-06-13 00:42:00,63.6,60.0,29.77,ENE,58,0.0,-999.0,88,-99.99,,,0.00,weatherlink.com 1.10,2013-06-13 04:42:00,
2013-06-13 00:57:00,63.7,60.0,29.77,ENE,60,0.0,-999.0,86,-99.99,,,0.00,weatherlink.com 1.10,2013-06-13 04:57:00,
2013-06-13 01:12:00,64.3,60.0,29.76,ENE,57,0.0,-999.0,85,-99.99,,,0.00,weatherlink.com 1.10,2013-06-13 05:12:00,
2013-06-13 01:28:00,64.8,60.0,29.75,ENE,61,0.0,-999.0,84,-99.99,,,0.00,weatherlink.com 1.10,2013-06-13 05:28:00,
2013-06-13 01:43:00,65.0,60.0,29.74,ENE,69,0.0,-999.0,83,-99.99,,,0.00,weatherlink.com 1.10,2013-06-13 05:43:00,
2013-06-13 01:58:00,65.0,60.0,29.75,ENE,67,0.0,-999.0,83,-99.99,,,0.00,weatherlink.com 1.10,2013-06-13 05:58:00,
2013-06-13 02:13:00,65.0,60.0,29.75,ENE,67,0.0,-999.0,83,-99.99,,,0.00,weatherlink.com 1.10,2013-06-13 06:13:00,
2013-06-13 02:28:00,65.0,60.0,29.75,ENE,67,0.0,-999.0,84,-99.99,,,0.00,weatherlink.com 1.10,2013-06-13 06:28:00,
2013-06-13 02:43:00,65.1,61.0,29.77,West,271,2.0,-999.0,86,-99.99,,,0.01,weatherlink.com 1.10,2013-06-13 06:43:00,
2013-06-13 02:58:00,64.7,61.0,29.75,West,269,0.0,-999.0,87,-99.99,,,0.10,weatherlink.com 1.10,2013-06-13 06:58:00,
2013-06-13 03:13:00,64.2,61.0,29.75,West,269,0.0,-999.0,88,-99.99,,,0.11,weatherlink.com 1.10,2013-06-13 07:13:00,
2013-06-13 03:28:00,63.9,61.0,29.75,West,269,0.0,-999.0,89,-99.99,,,0.11,weatherlink.com 1.10,2013-06-13 07:28:00,
2013-06-13 03:43:00,63.7,61.0,29.73,West,269,0.0,-999.0,90,-99.99,,,0.12,weatherlink.com 1.10,2013-06-13 07:43:00,
2013-06-13 03:58:00,63.6,61.0,29.71,West,269,0.0,-999.0,91,-99.99,,,0.14,weatherlink.com 1.10,2013-06-13 07:58:00,
2013-06-13 04:13:00,63.4,61.0,29.70,NNW,348,0.0,-999.0,91,-99.99,,,0.14,weatherlink.com 1.10,2013-06-13 08:13:00,
2013-06-13 04:28:00,63.2,61.0,29.70,ENE,67,0.0,-999.0,92,-99.99,,,0.14,weatherlink.com 1.10,2013-06-13 08:28:00,
2013-06-13 04:43:00,63.1,61.0,29.69,ENE,65,0.0,-999.0,92,-99.99,,,0.14,weatherlink.com 1.10,2013-06-13 08:43:00,
2013-06-13 04:58:00,63.0,61.0,29.69,ENE,59,0.0,-999.0,92,-99.99,,,0.21,weatherlink.com 1.10,2013-06-13 08:58:00,
2013-06-13 05:13:00,63.0,61.0,29.69,ENE,66,0.0,-999.0,93,-99.99,,,0.24,weatherlink.com 1.10,2013-06-13 09:13:00,
2013-06-13 05:28:00,62.9,61.0,29.67,East,80,0.0,-999.0,93,-99.99,,,0.24,weatherlink.com 1.10,2013-06-13 09:28:00,
2013-06-13 05:43:00,62.8,61.0,29.65,ENE,69,0.0,-999.0,93,-99.99,,,0.25,weatherlink.com 1.10,2013-06-13 09:43:00,
2013-06-13 05:58:00,62.8,61.0,29.66,ENE,69,0.0,-999.0,93,-99.99,,,0.25,weatherlink.com 1.10,2013-06-13 09:58:00,
2013-06-13 06:13:00,62.8,61.0,29.65,ENE,69,0.0,-999.0,94,-99.99,,,0.25,weatherlink.com 1.10,2013-06-13 10:13:00,
2013-06-13 06:28:00,62.8,61.0,29.65,NE,40,0.0,-999.0,94,-99.99,,,0.25,weatherlink.com 1.10,2013-06-13 10:28:00,
2013-06-13 06:43:00,62.7,61.0,29.64,ENE,62,1.0,-999.0,94,-99.99,,,0.25,weatherlink.com 1.10,2013-06-13 10:43:00,
2013-06-13 06:58:00,62.6,61.0,29.63,NE,55,1.0,-999.0,94,-99.99,,,0.25,weatherlink.com 1.10,2013-06-13 10:58:00,
2013-06-13 07:13:00,62.6,62.0,29.62,ENE,70,0.0,-999.0,96,-99.99,,,0.25,weatherlink.com 1.10,2013-06-13 11:13:00,
2013-06-13 07:28:00,62.8,61.0,29.66,SW,218,0.0,-999.0,94,-99.99,,,0.30,weatherlink.com 1.10,2013-06-13 11:28:00,
2013-06-13 07:43:00,62.7,61.0,29.66,West,265,0.0,-999.0,94,-99.99,,,0.50,weatherlink.com 1.10,2013-06-13 11:43:00,
2013-06-13 07:58:00,62.7,61.0,29.64,ENE,67,0.0,-999.0,94,-99.99,,,0.55,weatherlink.com 1.10,2013-06-13 11:58:00,
2013-06-13 08:13:00,63.0,62.0,29.62,NE,49,0.0,-999.0,95,-99.99,,,0.60,weatherlink.com 1.10,2013-06-13 12:13:00,
2013-06-13 08:28:00,62.9,61.0,29.59,NE,44,4.0,-999.0,94,-99.99,,,0.63,weatherlink.com 1.10,2013-06-13 12:28:00,
2013-06-13 08:43:00,62.7,61.0,29.56,NE,37,0.0,-999.0,94,-99.99,,,0.64,weatherlink.com 1.10,2013-06-13 12:43:00,
2013-06-13 08:58:00,62.7,61.0,29.55,NNE,16,0.0,-999.0,94,-99.99,,,0.64,weatherlink.com 1.10,2013-06-13 12:58:00,
2013-06-13 09:13:00,63.1,61.0,29.55,ENE,64,0.0,-999.0,94,-99.99,,,0.64,weatherlink.com 1.10,2013-06-13 13:13:00,
2013-06-13 09:28:00,63.7,62.0,29.54,NE,51,0.0,-999.0,94,-99.99,,,0.64,weatherlink.com 1.10,2013-06-13 13:28:00,
2013-06-13 09:43:00,64.7,63.0,29.54,ENE,59,0.0,-999.0,94,-99.99,,,0.64,weatherlink.com 1.10,2013-06-13 13:43:00,
2013-06-13 09:58:00,66.4,65.0,29.54,SW,226,0.0,-999.0,94,-99.99,,,0.64,weatherlink.com 1.10,2013-06-13 13:58:00,
2013-06-13 10:13:00,67.9,66.0,29.54,SSW,192,0.0,-999.0,93,-99.99,,,0.64,weatherlink.com 1.10,2013-06-13 14:13:00,
2013-06-13 10:28:00,68.6,65.0,29.53,SW,230,0.0,-999.0,89,-99.99,,,0.64,weatherlink.com 1.10,2013-06-13 14:28:00,
2013-06-13 10:44:00,68.8,65.0,29.52,ENE,67,0.0,-999.0,88,-99.99,,,0.64,weatherlink.com 1.10,2013-06-13 14:44:00,
2013-06-13 10:59:00,69.2,65.0,29.51,WSW,245,0.0,-999.0,87,-99.99,,,0.64,weatherlink.com 1.10,2013-06-13 14:59:00,
2013-06-13 11:14:00,69.2,65.0,29.51,South,190,5.0,-999.0,86,-99.99,,,0.64,weatherlink.com 1.10,2013-06-13 15:14:00,
2013-06-13 11:29:00,69.4,65.0,29.50,SE,130,0.0,-999.0,86,-99.99,,,0.64,weatherlink.com 1.10,2013-06-13 15:29:00,
2013-06-13 11:44:00,70.4,66.0,29.49,ENE,67,0.0,-999.0,87,-99.99,,,0.64,weatherlink.com 1.10,2013-06-13 15:44:00,
2013-06-13 11:59:00,71.6,67.0,29.48,North,360,0.0,-999.0,85,-99.99,,,0.64,weatherlink.com 1.10,2013-06-13 15:59:00,
2013-06-13 12:14:00,73.7,68.0,29.47,SW,223,0.0,-999.0,81,-99.99,,,0.64,weatherlink.com 1.10,2013-06-13 16:14:00,
2013-06-13 12:29:00,75.1,67.0,29.46,SSW,210,3.0,-999.0,77,-99.99,,,0.64,weatherlink.com 1.10,2013-06-13 16:29:00,
2013-06-13 12:44:00,75.1,68.0,29.45,SW,234,0.0,-999.0,78,-99.99,,,0.64,weatherlink.com 1.10,2013-06-13 16:44:00,
2013-06-13 12:59:00,75.7,68.0,29.44,SSW,196,0.0,-999.0,77,-99.99,,,0.64,weatherlink.com 1.10,2013-06-13 16:59:00,
2013-06-13 13:14:00,76.0,68.0,29.43,South,184,0.0,-999.0,77,-99.99,,,0.64,weatherlink.com 1.10,2013-06-13 17:14:00,
2013-06-13 13:29:00,76.0,68.0,29.42,South,172,0.0,-999.0,77,-99.99,,,0.64,weatherlink.com 1.10,2013-06-13 17:29:00,
2013-06-13 13:44:00,75.3,68.0,29.41,South,186,0.0,-999.0,78,-99.99,,,0.64,weatherlink.com 1.10,2013-06-13 17:44:00,
2013-06-13 13:59:00,74.6,68.0,29.41,WSW,243,0.0,-999.0,80,-99.99,,,0.64,weatherlink.com 1.10,2013-06-13 17:59:00,
2013-06-13 14:14:00,74.1,68.0,29.42,WSW,258,2.0,-999.0,82,-99.99,,,0.64,weatherlink.com 1.10,2013-06-13 18:14:00,
2013-06-13 14:29:00,73.8,68.0,29.41,WNW,288,0.0,-999.0,83,-99.99,,,0.64,weatherlink.com 1.10,2013-06-13 18:29:00,
2013-06-13 14:44:00,74.0,69.0,29.42,NW,325,0.0,-999.0,84,-99.99,,,0.64,weatherlink.com 1.10,2013-06-13 18:44:00,
2013-06-13 14:59:00,74.0,68.0,29.43,WSW,246,5.0,-999.0,82,-99.99,,,0.64,weatherlink.com 1.10,2013-06-13 18:59:00,
2013-06-13 15:14:00,73.4,68.0,29.42,SW,225,2.0,-999.0,84,-99.99,,,0.64,weatherlink.com 1.10,2013-06-13 19:14:00,
2013-06-13 15:29:00,73.9,67.0,29.42,WSW,244,5.0,-999.0,80,-99.99,,,0.64,weatherlink.com 1.10,2013-06-13 19:29:00,
2013-06-13 15:44:00,75.0,68.0,29.41,WNW,284,6.0,-999.0,78,-99.99,,,0.64,weatherlink.com 1.10,2013-06-13 19:44:00,
2013-06-13 15:59:00,75.3,68.0,29.41,SSW,192,2.0,-999.0,77,-99.99,,,0.64,weatherlink.com 1.10,2013-06-13 19:59:00,
2013-06-13 16:14:00,75.2,66.0,29.42,SW,228,4.0,-999.0,74,-99.99,,,0.64,weatherlink.com 1.10,2013-06-13 20:14:00,
2013-06-13 16:29:00,74.2,65.0,29.42,SSW,213,4.0,-999.0,74,-99.99,,,0.64,weatherlink.com 1.10,2013-06-13 20:29:00,
2013-06-13 16:44:00,73.6,65.0,29.42,West,266,2.0,-999.0,75,-99.99,,,0.64,weatherlink.com 1.10,2013-06-13 20:44:00,
2013-06-13 16:59:00,73.0,65.0,29.42,SW,227,4.0,-999.0,76,-99.99,,,0.64,weatherlink.com 1.10,2013-06-13 20:59:00,
2013-06-13 17:14:00,72.6,65.0,29.42,WSW,248,5.0,-999.0,77,-99.99,,,0.64,weatherlink.com 1.10,2013-06-13 21:14:00,
2013-06-13 17:29:00,72.2,65.0,29.42,WSW,252,5.0,-999.0,77,-99.99,,,0.64,weatherlink.com 1.10,2013-06-13 21:29:00,
2013-06-13 17:44:00,72.0,64.0,29.42,WSW,245,4.0,-999.0,77,-99.99,,,0.64,weatherlink.com 1.10,2013-06-13 21:44:00,
2013-06-13 17:59:00,71.8,65.0,29.41,West,279,6.0,-999.0,78,-99.99,,,0.64,weatherlink.com 1.10,2013-06-13 21:59:00,
2013-06-13 18:14:00,71.2,64.0,29.41,SW,231,4.0,-999.0,78,-99.99,,,0.64,weatherlink.com 1.10,2013-06-13 22:14:00,
2013-06-13 18:29:00,70.4,64.0,29.42,West,264,5.0,-999.0,80,-99.99,,,0.64,weatherlink.com 1.10,2013-06-13 22:29:00,
2013-06-13 18:44:00,69.2,64.0,29.42,West,262,1.0,-999.0,84,-99.99,,,0.65,weatherlink.com 1.10,2013-06-13 22:44:00,
2013-06-13 18:59:00,68.3,64.0,29.42,SSW,211,2.0,-999.0,86,-99.99,,,0.65,weatherlink.com 1.10,2013-06-13 22:59:00,
2013-06-13 19:14:00,67.6,64.0,29.43,WSW,245,3.0,-999.0,88,-99.99,,,0.66,weatherlink.com 1.10,2013-06-13 23:14:00,
2013-06-13 19:29:00,67.2,64.0,29.44,WSW,256,3.0,-999.0,89,-99.99,,,0.66,weatherlink.com 1.10,2013-06-13 23:29:00,
2013-06-13 19:44:00,66.9,64.0,29.45,WSW,242,6.0,-999.0,90,-99.99,,,0.66,weatherlink.com 1.10,2013-06-13 23:44:00,
2013-06-13 19:59:00,66.0,63.0,29.47,NNW,345,4.0,-999.0,89,-99.99,,,0.66,weatherlink.com 1.10,2013-06-13 23:59:00,
2013-06-13 20:14:00,65.0,61.0,29.48,NNE,26,3.0,-999.0,88,-99.99,,,0.67,weatherlink.com 1.10,2013-06-14 00:14:00,
2013-06-13 20:29:00,63.6,60.0,29.49,NW,325,7.0,-999.0,87,-99.99,,,0.67,weatherlink.com 1.10,2013-06-14 00:29:00,
2013-06-13 20:44:00,62.6,59.0,29.50,NW,323,6.0,-999.0,87,-99.99,,,0.67,weatherlink.com 1.10,2013-06-14 00:44:00,
2013-06-13 20:59:00,62.2,59.0,29.52,West,259,1.0,-999.0,88,-99.99,,,0.68,weatherlink.com 1.10,2013-06-14 00:59:00,
2013-06-13 21:05:00,62.1,58.5,29.52,North,9,2.0,2.0,88,0.00,,,0.68,Wunderground v.1.15,2013-06-14 01:05:00,
2013-06-13 21:10:00,61.9,58.3,29.52,WSW,242,3.0,3.0,88,0.00,,,0.68,Wunderground v.1.15,2013-06-14 01:10:00,
2013-06-13 21:15:00,61.8,58.5,29.53,WNW,289,3.0,3.0,89,0.00,,,0.68,Wunderground v.1.15,2013-06-14 01:15:00,
2013-06-13 21:16:00,61.7,59.0,29.53,WNW,290,1.0,-999.0,89,-99.99,,,0.68,weatherlink.com 1.10,2013-06-14 01:16:00,
2013-06-13 21:20:00,61.6,58.3,29.54,West,281,2.0,3.0,89,0.00,,,0.69,Wunderground v.1.15,2013-06-14 01:20:00,
2013-06-13 21:25:00,61.5,58.2,29.55,NNW,339,2.0,3.0,89,0.00,,,0.69,Wunderground v.1.15,2013-06-14 01:25:00,
2013-06-13 21:30:00,61.4,58.1,29.55,NNW,329,2.0,3.0,89,0.00,,,0.69,Wunderground v.1.15,2013-06-14 01:30:00,
2013-06-13 21:31:00,61.4,58.0,29.55,North,355,3.0,-999.0,89,-99.99,,,0.69,weatherlink.com 1.10,2013-06-14 01:31:00,
2013-06-13 21:40:00,61.0,57.7,29.55,NNE,13,3.0,3.0,89,0.00,,,0.70,Wunderground v.1.15,2013-06-14 01:40:00,
2013-06-13 21:45:00,60.8,57.5,29.55,NE,43,3.0,3.0,89,0.00,,,0.70,Wunderground v.1.15,2013-06-14 01:45:00,
2013-06-13 22:00:00,60.4,58.0,29.56,NNW,336,5.0,-999.0,90,-99.99,,,0.70,weatherlink.com 1.10,2013-06-14 02:00:00,
2013-06-13 22:15:00,60.1,57.0,29.58,North,350,0.0,-999.0,90,-99.99,,,0.70,weatherlink.com 1.10,2013-06-14 02:15:00,
2013-06-13 22:30:00,59.8,57.0,29.59,ENE,60,0.0,-999.0,90,-99.99,,,0.70,weatherlink.com 1.10,2013-06-14 02:30:00,
2013-06-13 22:45:00,59.6,57.0,29.58,NE,40,1.0,-999.0,90,-99.99,,,0.70,weatherlink.com 1.10,2013-06-14 02:45:00,
2013-06-13 23:00:00,59.3,56.0,29.59,NE,38,2.0,-999.0,90,-99.99,,,0.71,weatherlink.com 1.10,2013-06-14 03:00:00,
2013-06-13 23:15:00,59.3,57.0,29.59,West,275,3.0,-999.0,91,-99.99,,,0.71,weatherlink.com 1.10,2013-06-14 03:15:00,
2013-06-13 23:30:00,59.1,57.0,29.60,NW,324,0.0,-999.0,91,-99.99,,,0.71,weatherlink.com 1.10,2013-06-14 03:30:00,
2013-06-13 23:45:00,59.0,56.0,29.61,NE,36,0.0,-999.0,91,-99.99,,,0.71,weatherlink.com 1.10,2013-06-14 03:45:00,